Time;durP1;ratioP1;P1;durP2;ratioP2;P2;SDS_P1;SDS_P2;PMS_P1;PMS_P2;Temp;Humidity;BMP_temperature;BMP_pressure;BME280_temperature;BME280_humidity;BME280_pressure;Samples;Min_cycle;Max_cycle;Signal;HPM_P1;HPM_P2
2022/08/09 00:00:08;;;;;;;49.90;20.85;;;;;;;21.61;63.69;100333.81;5030133;28;20049;-71
2022/08/09 00:02:38;;;;;;;50.50;20.52;;;;;;;21.72;63.89;100351.19;5027402;28;20525;-71
2022/08/09 00:05:14;;;;;;;46.40;21.23;;;;;;;21.45;63.64;100295.97;5026723;28;20053;-71
2022/08/09 00:08:02;;;;;;;47.08;20.05;;;;;;;21.56;63.89;100299.13;5028805;28;20405;-71
2022/08/09 00:10:30;;;;;;;42.97;18.90;;;;;;;21.80;63.59;100341.66;5022777;28;20053;-71
2022/08/09 00:13:01;;;;;;;42.83;19.40;;;;;;;21.78;63.66;100332.69;5026532;28;20054;-70
2022/08/09 00:15:30;;;;;;;55.40;22.88;;;;;;;21.69;63.54;100317.78;5026128;28;20100;-69
2022/08/09 00:18:17;;;;;;;47.13;19.30;;;;;;;21.52;63.48;100284.81;5027391;28;20057;-70
2022/08/09 00:20:44;;;;;;;48.95;19.73;;;;;;;21.43;63.44;100287.81;5026111;28;20045;-71
2022/08/09 00:23:17;;;;;;;45.05;18.88;;;;;;;21.51;63.50;100309.56;5023870;28;20053;-71
2022/08/09 00:26:06;;;;;;;43.55;18.05;;;;;;;21.43;63.97;100287.81;5022168;28;20524;-70
2022/08/09 00:28:33;;;;;;;44.05;18.88;;;;;;;21.70;64.10;100314.56;5016515;28;20088;-71
2022/08/09 00:31:01;;;;;;;48.67;19.63;;;;;;;21.74;63.75;100309.84;5028654;28;20053;-71
2022/08/09 00:33:50;;;;;;;38.75;17.88;;;;;;;21.61;63.79;100293.22;5025434;28;20417;-70
2022/08/09 00:36:19;;;;;;;42.75;17.10;;;;;;;21.89;63.58;100322.44;5026201;28;20100;-70
2022/08/09 00:38:46;;;;;;;42.35;18.58;;;;;;;21.31;63.45;100236.72;5024420;28;20057;-71
2022/08/09 00:41:21;;;;;;;50.55;20.80;;;;;;;21.77;63.81;100291.22;5022671;28;20074;-70
2022/08/09 00:44:08;;;;;;;45.90;19.13;;;;;;;21.83;63.55;100306.84;5022957;28;20060;-71
2022/08/09 00:46:51;;;;;;;46.65;18.30;;;;;;;21.40;63.10;100234.59;5021497;28;21376;-71
2022/08/09 00:49:30;;;;;;;41.25;18.83;;;;;;;21.84;63.47;100299.94;5024053;28;20054;-70
2022/08/09 00:51:57;;;;;;;49.05;20.83;;;;;;;21.77;63.63;100280.66;5034868;28;20080;-71
2022/08/09 00:54:32;;;;;;;53.63;21.55;;;;;;;21.79;63.58;100276.66;5021928;28;20136;-69
2022/08/09 00:57:03;;;;;;;52.40;20.83;;;;;;;21.86;63.70;100289.06;5020983;28;20052;-71
2022/08/09 00:59:36;;;;;;;54.60;22.30;;;;;;;21.77;63.77;100277.81;5018464;28;20405;-71
2022/08/09 01:02:19;;;;;;;50.95;19.65;;;;;;;21.96;64.06;100294.22;5028131;28;20060;-71
2022/08/09 01:05:14;;;;;;;49.08;20.90;;;;;;;21.97;63.62;100284.47;5022820;28;20045;-70
2022/08/09 01:07:53;;;;;;;43.92;18.98;;;;;;;22.01;63.63;100296.78;5028747;28;20060;-71
2022/08/09 01:10:42;;;;;;;49.00;22.23;;;;;;;22.00;63.41;100288.63;5024103;28;20053;-71
2022/08/09 01:13:19;;;;;;;52.58;20.35;;;;;;;22.04;63.49;100283.84;5026802;28;20725;-71
2022/08/09 01:15:52;;;;;;;46.28;21.23;;;;;;;21.91;63.41;100257.50;5021804;28;20111;-70
2022/08/09 01:18:26;;;;;;;52.03;19.55;;;;;;;21.91;63.46;100254.66;5029882;28;20183;-71
2022/08/09 01:21:35;;;;;;;59.92;21.02;;;;;;;22.00;63.81;100271.56;5028442;28;20054;-71
2022/08/09 01:24:29;;;;;;;50.25;20.65;;;;;;;21.79;63.71;100248.25;4950201;28;20047;-71
2022/08/09 01:27:04;;;;;;;54.15;20.60;;;;;;;21.79;63.89;100260.44;5025022;28;20136;-71
2022/08/09 01:29:43;;;;;;;57.50;19.35;;;;;;;21.73;64.07;100267.56;5025775;28;20410;-71
2022/08/09 01:32:25;;;;;;;49.85;18.73;;;;;;;21.41;64.09;100216.34;5043067;28;20475;-71
2022/08/09 01:35:11;;;;;;;56.22;21.35;;;;;;;21.46;64.26;100230.28;5026734;28;20050;-70
2022/08/09 01:38:03;;;;;;;53.42;20.95;;;;;;;21.57;63.94;100241.13;5028381;28;20058;-70
2022/08/09 01:40:40;;;;;;;51.75;21.05;;;;;;;21.53;64.28;100226.81;5026756;28;20053;-71
2022/08/09 01:43:09;;;;;;;46.80;18.45;;;;;;;21.49;64.45;100212.50;5028617;28;20127;-71
2022/08/09 01:45:37;;;;;;;47.80;17.45;;;;;;;21.60;64.31;100248.91;5031577;28;20049;-71
2022/08/09 01:48:18;;;;;;;51.67;18.77;;;;;;;21.59;64.33;100247.28;5031575;28;20057;-71
2022/08/09 01:50:57;;;;;;;53.95;18.88;;;;;;;21.50;64.24;100231.22;5027955;28;20077;-71
2022/08/09 01:53:25;;;;;;;;;;;;;;;21.50;64.49;100241.72;5023648;28;20060;-71
2022/08/09 01:56:09;;;;;;;49.53;17.70;;;;;;;21.64;64.34;100241.31;5029231;28;20486;-71
2022/08/09 01:58:37;;;;;;;51.10;18.10;;;;;;;21.62;64.04;100232.34;5024681;28;20077;-72
2022/08/09 02:01:06;;;;;;;49.28;18.08;;;;;;;21.60;64.39;100234.72;5033850;28;20103;-72
2022/08/09 02:03:35;;;;;;;43.57;16.63;;;;;;;21.71;64.04;100241.53;5028033;28;20049;-69
2022/08/09 02:06:03;;;;;;;44.80;17.70;;;;;;;21.56;64.09;100213.91;5030943;28;20119;-71
2022/08/09 02:08:36;;;;;;;44.22;17.58;;;;;;;21.59;64.12;100218.84;5024303;28;20053;-71
2022/08/09 02:11:27;;;;;;;40.83;17.20;;;;;;;21.64;64.19;100233.63;5025802;28;20051;-70
2022/08/09 02:14:10;;;;;;;43.03;16.52;;;;;;;21.65;64.04;100223.09;5031501;28;20124;-71
2022/08/09 02:16:52;;;;;;;47.85;18.58;;;;;;;21.52;64.24;100208.13;5030858;28;20081;-71
2022/08/09 02:19:39;;;;;;;40.72;16.70;;;;;;;21.42;64.09;100195.25;5024737;28;20059;-70
2022/08/09 02:22:27;;;;;;;55.17;19.00;;;;;;;21.57;64.35;100224.06;5032138;28;20132;-71
2022/08/09 02:25:28;;;;;;;55.17;17.70;;;;;;;21.41;64.48;100190.78;5027966;28;20049;-73
2022/08/09 02:28:00;;;;;;;55.53;19.70;;;;;;;21.67;64.08;100223.53;5028364;28;20476;-71
2022/08/09 02:30:53;;;;;;;61.75;21.05;;;;;;;21.66;64.08;100219.06;5030807;28;20138;-71
2022/08/09 02:33:25;;;;;;;;;;;;;;;21.58;64.13;100234.25;5025006;28;20556;-72
2022/08/09 02:36:16;;;;;;;56.45;19.70;;;;;;;21.31;64.08;100182.75;5029948;28;19929;-71
2022/08/09 02:38:51;;;;;;;49.63;18.33;;;;;;;21.53;64.04;100223.97;5028230;28;20394;-71
2022/08/09 02:41:25;;;;;;;52.78;19.33;;;;;;;21.45;64.15;100211.59;5029258;28;20131;-70
2022/08/09 02:43:59;;;;;;;54.17;17.52;;;;;;;21.44;64.38;100204.25;5030130;28;20048;-71
2022/08/09 02:46:37;;;;;;;61.05;19.90;;;;;;;21.49;64.76;100215.34;5027846;28;20123;-72
2022/08/09 02:49:09;;;;;;;56.70;18.67;;;;;;;21.41;64.65;100198.47;5028022;28;20128;-72
2022/08/09 02:51:40;;;;;;;51.08;19.75;;;;;;;21.60;64.60;100221.31;5029916;28;20049;-71
2022/08/09 02:54:13;;;;;;;48.25;18.02;;;;;;;21.63;64.90;100229.13;5028220;28;20081;-71
2022/08/09 02:56:44;;;;;;;61.78;19.02;;;;;;;21.63;64.84;100225.47;5033225;28;20469;-66
2022/08/09 02:59:20;;;;;;;57.85;18.48;;;;;;;21.59;64.66;100225.38;5030541;28;20478;-70
2022/08/09 03:02:04;;;;;;;54.67;17.98;;;;;;;21.27;65.04;100159.09;5027271;28;20045;-70
2022/08/09 03:04:39;;;;;;;45.85;17.77;;;;;;;21.47;64.99;100191.31;5032818;28;20056;-70
2022/08/09 03:07:07;;;;;;;55.78;17.58;;;;;;;21.68;64.54;100222.38;5021125;28;20057;-70
2022/08/09 03:09:42;;;;;;;57.95;20.55;;;;;;;21.71;64.54;100218.81;5026766;28;20165;-70
2022/08/09 03:12:23;;;;;;;56.63;17.27;;;;;;;21.25;64.83;100167.16;5025329;28;20073;-71
2022/08/09 03:14:52;;;;;;;56.63;19.10;;;;;;;20.96;64.70;100132.25;5024897;28;20055;-71
2022/08/09 03:17:20;;;;;;;52.38;19.42;;;;;;;21.19;65.07;100165.75;5026000;28;20518;-71
2022/08/09 03:19:57;;;;;;;54.55;18.05;;;;;;;21.48;64.98;100202.34;5028112;28;20050;-70
2022/08/09 03:22:39;;;;;;;48.47;18.40;;;;;;;21.51;65.13;100209.31;5030786;28;20456;-70
2022/08/09 03:25:08;;;;;;;46.38;18.40;;;;;;;21.25;64.69;100172.81;5024551;28;20140;-70
2022/08/09 03:27:54;;;;;;;55.90;19.75;;;;;;;21.31;64.96;100188.44;5028694;28;20053;-70
2022/08/09 03:30:21;;;;;;;54.90;19.00;;;;;;;21.39;64.92;100217.88;5025906;28;20096;-71
2022/08/09 03:33:00;;;;;;;53.75;19.13;;;;;;;21.40;65.15;100211.84;5028060;28;20056;-71
2022/08/09 03:35:45;;;;;;;55.10;20.20;;;;;;;21.38;64.94;100207.72;5028250;28;20057;-71
2022/08/09 03:38:33;;;;;;;66.85;20.40;;;;;;;21.38;64.88;100199.19;5020632;28;20057;-71
2022/08/09 03:41:00;;;;;;;54.10;19.90;;;;;;;21.19;64.94;100169.41;5025684;28;20091;-71
2022/08/09 03:43:28;;;;;;;59.63;18.75;;;;;;;21.51;64.97;100221.50;5030535;28;20049;-71
2022/08/09 03:45:59;;;;;;;52.97;19.85;;;;;;;21.49;64.95;100206.81;5020999;28;20088;-71
2022/08/09 03:48:31;;;;;;;56.45;19.55;;;;;;;21.00;65.15;100127.50;5026571;28;20054;-72
2022/08/09 03:51:05;;;;;;;50.03;18.83;;;;;;;21.56;65.07;100216.75;5027217;28;20050;-72
2022/08/09 03:53:53;;;;;;;55.72;19.15;;;;;;;21.57;65.17;100212.69;5029089;28;20046;-72
2022/08/09 03:56:24;;;;;;;56.17;19.25;;;;;;;21.42;64.88;100192.41;5024054;28;20448;-71
2022/08/09 03:58:52;;;;;;;58.00;21.00;;;;;;;21.27;65.27;100167.63;5018495;28;20080;-70
2022/08/09 04:01:21;;;;;;;56.55;19.08;;;;;;;21.54;64.98;100219.97;5024312;28;20054;-71
2022/08/09 04:03:53;;;;;;;58.83;18.50;;;;;;;20.96;64.90;100114.41;5021391;28;20399;-72
2022/08/09 04:06:30;;;;;;;53.38;17.65;;;;;;;21.55;65.15;100221.59;5027160;28;20417;-72
2022/08/09 04:09:01;;;;;;;56.10;18.25;;;;;;;21.44;65.41;100200.59;5026297;28;20474;-72
2022/08/09 04:12:06;;;;;;;61.65;20.92;;;;;;;21.18;64.81;100161.28;5027860;28;20498;-71
2022/08/09 04:14:38;;;;;;;57.53;19.85;;;;;;;21.24;65.02;100154.16;5023562;28;20091;-71
2022/08/09 04:17:25;;;;;;;55.72;19.55;;;;;;;21.45;65.04;100188.84;5023639;28;20053;-71
2022/08/09 04:19:55;;;;;;;57.80;19.45;;;;;;;21.52;64.89;100197.56;5031015;28;20057;-72
2022/08/09 04:22:22;;;;;;;54.08;18.90;;;;;;;21.36;64.89;100162.63;5027511;28;20041;-72
2022/08/09 04:24:53;;;;;;;59.28;19.30;;;;;;;21.27;65.23;100156.25;5029129;28;20042;-72
2022/08/09 04:27:20;;;;;;;65.85;19.80;;;;;;;21.65;65.01;100211.72;5028864;28;20077;-72
2022/08/09 04:29:48;;;;;;;68.50;21.88;;;;;;;21.57;64.99;100195.66;5026076;28;20065;-71
2022/08/09 04:32:16;;;;;;;56.05;20.15;;;;;;;21.58;64.89;100203.00;5032308;28;20498;-71
2022/08/09 04:34:57;;;;;;;68.13;22.88;;;;;;;21.45;64.98;100185.19;5029659;28;20091;-71
2022/08/09 04:37:27;;;;;;;62.85;20.38;;;;;;;21.52;65.19;100197.56;5024866;28;20060;-71
2022/08/09 04:40:13;;;;;;;64.20;20.88;;;;;;;21.58;65.13;100215.19;5028436;28;20152;-70
2022/08/09 04:42:54;;;;;;;56.03;20.52;;;;;;;21.52;65.27;100220.31;5025413;28;20057;-71
2022/08/09 04:45:22;;;;;;;65.25;21.58;;;;;;;21.55;65.08;100215.09;5028288;28;20059;-72
2022/08/09 04:47:50;;;;;;;70.03;21.25;;;;;;;21.39;65.37;100183.78;5026750;28;20080;-72
2022/08/09 04:50:29;;;;;;;61.20;21.17;;;;;;;21.45;65.42;100191.69;5025696;28;20061;-73
2022/08/09 04:53:01;;;;;;;71.95;22.77;;;;;;;21.46;65.31;100195.34;5027544;28;20053;-71
2022/08/09 04:55:29;;;;;;;71.55;21.73;;;;;;;21.46;65.08;100196.19;5025357;28;20045;-72
2022/08/09 04:58:16;;;;;;;72.90;21.73;;;;;;;21.22;64.97;100140.28;5025263;28;20067;-72
2022/08/09 05:00:43;;;;;;;69.57;21.75;;;;;;;21.52;65.21;100208.94;5027530;28;20429;-73
2022/08/09 05:03:11;;;;;;;63.20;22.10;;;;;;;21.64;65.18;100225.13;5029830;28;20104;-72
2022/08/09 05:05:58;;;;;;;71.25;22.23;;;;;;;21.58;65.50;100214.38;5025128;28;20050;-71
2022/08/09 05:08:36;;;;;;;68.97;23.77;;;;;;;;;;5028243;28;20072;-71
2022/08/09 05:11:04;;;;;;;72.38;23.98;;;;;;;21.66;65.16;100224.75;5030433;28;20057;-72
2022/08/09 05:13:33;;;;;;;72.15;22.52;;;;;;;21.67;65.11;100230.03;5019228;28;20495;-72
2022/08/09 05:16:05;;;;;;;66.28;21.83;;;;;;;21.70;65.19;100223.63;5025966;28;20360;-72
2022/08/09 05:18:34;;;;;;;74.18;23.10;;;;;;;21.59;65.30;100216.03;5023816;28;20080;-71
2022/08/09 05:21:21;;;;;;;61.00;22.30;;;;;;;21.05;65.13;100146.28;5033832;28;20059;-73
2022/08/09 05:23:56;;;;;;;70.07;22.35;;;;;;;21.22;65.13;100190.59;5033686;28;20057;-71
2022/08/09 05:26:28;;;;;;;51.13;20.50;;;;;;;21.23;65.56;100218.63;5040310;28;20053;-72
2022/08/09 05:29:12;;;;;;;61.58;20.58;;;;;;;20.98;66.02;100197.19;5033620;28;20045;-70
2022/08/09 05:31:44;;;;;;;44.85;17.33;;;;;;;20.95;65.85;100200.72;5029603;28;20049;-72
2022/08/09 05:34:22;;;;;;;43.67;16.80;;;;;;;20.93;66.26;100228.66;5030921;28;20136;-71
2022/08/09 05:36:57;;;;;;;60.75;20.48;;;;;;;20.70;66.37;100209.31;5030355;28;20506;-71
2022/08/09 05:39:27;;;;;;;59.88;19.15;;;;;;;20.72;66.21;100206.13;5031149;28;20113;-71
2022/08/09 05:42:09;;;;;;;63.00;20.83;;;;;;;20.80;66.25;100230.69;5033215;28;20049;-70
2022/08/09 05:44:51;;;;;;;58.92;20.73;;;;;;;20.79;66.26;100226.22;5030228;28;20045;-71
2022/08/09 05:47:20;;;;;;;63.40;24.08;;;;;;;20.80;66.60;100236.38;5028528;28;20049;-73
2022/08/09 05:49:49;;;;;;;;;;;;;;;20.79;66.41;100234.72;5026263;28;20080;-74
2022/08/09 05:52:36;;;;;;;60.75;23.85;;;;;;;20.69;66.24;100216.19;5020450;28;20394;-71
2022/08/09 05:55:05;;;;;;;70.15;23.80;;;;;;;20.61;67.05;100207.78;5023234;28;20045;-71
2022/08/09 05:57:36;;;;;;;55.65;22.23;;;;;;;20.60;67.30;100209.81;5037005;28;20073;-71
2022/08/09 06:00:24;;;;;;;53.45;21.48;;;;;;;20.48;67.41;100206.97;5030359;28;20065;-71
2022/08/09 06:02:51;;;;;;;60.35;22.75;;;;;;;20.38;67.05;100188.41;5034294;28;20046;-72
2022/08/09 06:05:23;;;;;;;52.60;19.70;;;;;;;20.33;67.50;100188.63;5025385;28;20053;-73
2022/08/09 06:08:10;;;;;;;54.25;18.98;;;;;;;20.68;67.31;100248.56;5032457;28;20059;-73
2022/08/09 06:10:37;;;;;;;61.50;22.23;;;;;;;20.68;67.33;100253.41;5035428;28;20053;-73
2022/08/09 06:13:09;;;;;;;59.42;20.15;;;;;;;20.42;67.16;100214.88;5026160;28;20060;-70
2022/08/09 06:15:44;;;;;;;55.38;20.15;;;;;;;20.41;67.96;100241.59;5034572;28;20486;-72
2022/08/09 06:18:12;;;;;;;74.97;20.15;;;;;;;20.46;67.35;100249.84;5030368;28;20088;-72
2022/08/09 06:20:42;;;;;;;54.38;19.98;;;;;;;20.42;67.34;100240.41;5033554;28;20128;-72
2022/08/09 06:23:20;;;;;;;48.60;18.42;;;;;;;19.95;67.94;100209.66;5034658;28;20080;-72
2022/08/09 06:25:48;;;;;;;45.72;17.70;;;;;;;20.13;67.82;100230.91;5030957;28;20124;-74
2022/08/09 06:28:21;;;;;;;59.75;19.88;;;;;;;20.11;67.68;100216.28;5034349;28;20057;-73
2022/08/09 06:30:53;;;;;;;59.42;21.73;;;;;;;20.18;67.86;100232.72;5029838;28;20135;-73
2022/08/09 06:33:21;;;;;;;53.05;20.90;;;;;;;20.16;67.76;100246.41;5031134;28;20123;-74
2022/08/09 06:36:08;;;;;;;61.35;22.25;;;;;;;20.09;68.02;100241.31;5028220;28;20052;-73
2022/08/09 06:38:39;;;;;;;58.22;22.58;;;;;;;19.59;67.80;100157.41;5031152;28;20049;-75
2022/08/09 06:41:15;;;;;;;61.60;22.33;;;;;;;20.28;67.87;100254.09;5019585;28;20068;-73
2022/08/09 06:43:46;;;;;;;;;;;;;;;20.33;67.69;100253.88;5024096;28;20541;-72
2022/08/09 06:46:14;;;;;;;66.88;20.88;;;;;;;20.34;67.94;100252.66;5022704;28;20000;-74
2022/08/09 06:49:01;;;;;;;61.05;21.70;;;;;;;20.45;68.14;100261.56;5025069;28;20563;-74
2022/08/09 06:51:29;;;;;;;63.92;23.42;;;;;;;20.34;68.22;100238.50;5019301;28;20057;-74
2022/08/09 06:53:56;;;;;;;67.57;21.88;;;;;;;20.36;68.52;100247.47;5024614;28;20057;-73
2022/08/09 06:56:26;;;;;;;60.33;23.73;;;;;;;20.36;68.27;100236.13;5030797;28;20124;-73
2022/08/09 06:58:57;;;;;;;72.00;21.50;;;;;;;20.35;68.40;100223.97;5030142;28;20051;-74
2022/08/09 07:01:44;;;;;;;60.85;22.52;;;;;;;20.52;68.26;100248.47;5027744;28;20057;-74
2022/08/09 07:04:25;;;;;;;67.47;25.13;;;;;;;20.64;67.86;100270.31;5027889;28;20059;-72
2022/08/09 07:06:52;;;;;;;64.53;24.10;;;;;;;20.02;68.26;100172.22;5026040;28;20401;-71
2022/08/09 07:09:29;;;;;;;70.82;26.95;;;;;;;20.62;68.24;100246.34;5028462;28;20067;-75
2022/08/09 07:12:16;;;;;;;70.05;23.88;;;;;;;20.72;68.09;100274.25;5028910;28;20124;-73
2022/08/09 07:14:46;;;;;;;60.22;22.15;;;;;;;20.35;68.02;100208.97;5029607;28;20096;-74
2022/08/09 07:17:19;;;;;;;56.72;21.52;;;;;;;20.65;67.91;100256.94;5030763;28;20127;-73
2022/08/09 07:19:47;;;;;;;52.33;21.85;;;;;;;20.41;67.69;100230.25;5043888;28;20049;-72
2022/08/09 07:22:23;;;;;;;49.28;17.63;;;;;;;20.75;67.83;100279.16;5025340;28;20049;-71
2022/08/09 07:25:02;;;;;;;58.95;20.30;;;;;;;20.80;67.93;100284.63;5021201;28;20057;-71
2022/08/09 07:27:35;;;;;;;46.10;19.20;;;;;;;20.71;67.59;100283.91;5025406;28;20057;-70
2022/08/09 07:30:19;;;;;;;52.47;20.85;;;;;;;20.74;67.49;100286.84;5024533;28;20042;-69
2022/08/09 07:32:50;;;;;;;56.63;21.00;;;;;;;20.61;67.39;100268.19;5025159;28;20064;-70
2022/08/09 07:35:17;;;;;;;65.78;21.58;;;;;;;20.50;67.33;100249.97;5026048;28;20046;-69
2022/08/09 07:37:45;;;;;;;48.70;19.02;;;;;;;20.64;67.30;100289.34;5025750;28;20049;-70
2022/08/09 07:40:17;;;;;;;49.63;19.35;;;;;;;20.20;67.70;100224.66;5026023;28;20056;-69
2022/08/09 07:42:55;;;;;;;49.38;20.00;;;;;;;20.53;68.12;100295.50;5019023;28;20770;-70
2022/08/09 07:45:29;;;;;;;60.72;20.73;;;;;;;20.32;68.03;100243.72;5023041;28;20493;-70
2022/08/09 07:48:09;;;;;;;59.13;21.73;;;;;;;20.49;67.59;100239.81;5039796;28;20498;-70
2022/08/09 07:50:57;;;;;;;60.35;23.83;;;;;;;20.88;67.79;100280.00;5026312;28;20057;-70
2022/08/09 07:53:45;;;;;;;71.40;21.88;;;;;;;20.95;67.92;100289.56;5024451;28;20422;-70
2022/08/09 07:56:32;;;;;;;56.35;21.40;;;;;;;20.73;67.14;100253.19;5018827;28;20421;-69
2022/08/09 07:59:00;;;;;;;52.08;21.77;;;;;;;20.96;67.65;100291.22;5027849;28;20084;-71
2022/08/09 08:01:27;;;;;;;53.47;20.02;;;;;;;20.74;67.62;100252.81;5025047;28;20099;-70
2022/08/09 08:04:00;;;;;;;54.88;19.08;;;;;;;20.80;67.36;100265.56;5020666;28;22175;-70
2022/08/09 08:06:27;;;;;;;50.20;20.10;;;;;;;20.25;67.03;100195.28;5021979;28;20053;-69
2022/08/09 08:08:58;;;;;;;50.95;20.83;;;;;;;20.90;67.32;100286.97;5034939;28;20059;-70
2022/08/09 08:11:31;;;;;;;53.70;18.77;;;;;;;20.87;67.24;100284.84;5024926;28;20466;-69
2022/08/09 08:14:18;;;;;;;47.80;16.85;;;;;;;20.80;67.33;100288.28;5015783;28;20054;-70
2022/08/09 08:16:49;;;;;;;49.47;20.98;;;;;;;20.78;67.34;100298.31;5023250;28;20053;-70
2022/08/09 08:19:34;;;;;;;56.30;21.02;;;;;;;20.82;67.46;100297.28;5030677;28;20064;-69
2022/08/09 08:22:03;;;;;;;45.40;18.98;;;;;;;20.47;67.31;100233.66;5024809;28;20080;-69
2022/08/09 08:24:30;;;;;;;53.60;20.95;;;;;;;20.83;67.36;100292.44;5017308;28;20053;-71
2022/08/09 08:27:06;;;;;;;50.25;20.63;;;;;;;20.75;67.49;100267.81;5019806;28;20061;-71
2022/08/09 08:29:43;;;;;;;43.00;20.17;;;;;;;21.03;66.98;100297.13;5024779;28;20049;-71
2022/08/09 08:32:16;;;;;;;32.90;15.65;;;;;;;21.12;67.31;100304.66;5028313;28;20139;-72
2022/08/09 08:35:03;;;;;;;42.58;18.38;;;;;;;21.04;67.02;100289.44;5025006;28;20519;-70
2022/08/09 08:37:30;;;;;;;35.40;16.83;;;;;;;20.49;66.81;100212.28;5024928;28;20061;-71
2022/08/09 08:40:17;;;;;;;38.83;15.75;;;;;;;21.08;66.71;100296.03;5018349;28;20064;-73
2022/08/09 08:42:45;;;;;;;41.53;17.40;;;;;;;21.12;67.01;100294.13;5023817;28;20515;-71
2022/08/09 08:45:15;;;;;;;37.63;17.30;;;;;;;21.18;66.61;100286.22;5023559;28;20045;-71
2022/08/09 08:47:44;;;;;;;40.33;15.15;;;;;;;20.78;66.37;100208.34;5027687;28;20150;-72
2022/08/09 08:50:15;;;;;;;46.53;17.88;;;;;;;21.28;66.36;100277.19;5025949;28;20458;-72
2022/08/09 08:52:44;;;;;;;43.65;18.25;;;;;;;21.37;66.53;100294.94;5027608;28;20126;-72
2022/08/09 08:55:26;;;;;;;46.28;19.30;;;;;;;21.57;66.31;100293.09;5019712;28;20061;-71
2022/08/09 08:57:54;;;;;;;35.15;16.38;;;;;;;21.55;66.49;100255.69;5038488;28;20056;-70
2022/08/09 09:00:26;;;;;;;42.05;17.95;;;;;;;22.06;65.78;100311.94;5025249;28;20054;-71
2022/08/09 09:03:01;;;;;;;35.55;15.93;;;;;;;21.88;65.57;100257.41;5028682;28;20080;-72
2022/08/09 09:05:44;;;;;;;36.13;17.50;;;;;;;22.56;65.10;100318.97;5027615;28;20417;-72
2022/08/09 09:08:33;;;;;;;40.00;17.25;;;;;;;22.64;64.63;100295.19;5027155;28;20054;-70
2022/08/09 09:11:07;;;;;;;37.97;16.60;;;;;;;22.22;64.78;100204.72;5011669;28;20422;-72
2022/08/09 09:13:47;;;;;;;30.33;13.63;;;;;;;22.25;64.46;100215.34;5022788;28;20042;-72
2022/08/09 09:16:27;;;;;;;28.60;12.80;;;;;;;22.92;64.45;100310.16;5026862;28;20529;-69
2022/08/09 09:19:01;;;;;;;28.33;13.80;;;;;;;22.92;63.86;100307.31;5019615;28;20275;-71
2022/08/09 09:21:58;;;;;;;30.20;13.68;;;;;;;22.95;63.88;100302.91;5025956;28;20054;-70
2022/08/09 09:24:27;;;;;;;34.17;15.57;;;;;;;23.04;63.80;100303.53;5016986;28;20121;-71
2022/08/09 09:26:57;;;;;;;31.70;14.73;;;;;;;23.03;63.50;100295.34;5020263;28;20422;-69
2022/08/09 09:29:36;;;;;;;26.33;15.00;;;;;;;22.76;63.09;100246.69;5022463;28;20331;-69
2022/08/09 09:32:30;;;;;;;31.23;15.20;;;;;;;23.33;62.80;100312.72;5019774;28;20132;-69
2022/08/09 09:35:01;;;;;;;35.83;14.05;;;;;;;23.41;63.09;100309.63;5021026;28;20104;-72
2022/08/09 09:37:29;;;;;;;23.20;12.13;;;;;;;23.29;62.60;100304.09;5024144;28;20057;-70
2022/08/09 09:39:58;;;;;;;29.13;12.35;;;;;;;23.04;62.96;100275.03;5029263;28;20061;-71
2022/08/09 09:42:28;;;;;;;35.25;13.70;;;;;;;23.27;62.73;100300.78;5022575;28;20150;-71
2022/08/09 09:45:06;;;;;;;28.70;12.70;;;;;;;23.41;62.54;100314.50;5017856;28;20080;-70
2022/08/09 09:47:34;;;;;;;24.90;12.73;;;;;;;23.56;62.29;100312.81;5021905;28;20080;-69
2022/08/09 09:50:13;;;;;;;;;;;;;;;23.68;62.96;100315.53;5020076;28;20046;-70
2022/08/09 09:52:52;;;;;;;33.22;14.10;;;;;;;23.72;61.83;100292.78;5021277;28;20015;-70
2022/08/09 09:55:25;;;;;;;36.45;14.88;;;;;;;23.86;61.61;100316.75;5024656;28;20573;-68
2022/08/09 09:58:03;;;;;;;29.30;15.57;;;;;;;23.98;61.14;100298.63;5026856;28;20418;-69
2022/08/09 10:00:49;;;;;;;28.90;15.43;;;;;;;24.12;60.71;100269.53;5022585;28;20502;-68
2022/08/09 10:03:48;;;;;;;31.60;14.30;;;;;;;25.01;60.14;100310.22;5028336;28;20061;-69
2022/08/09 10:06:27;;;;;;;26.30;13.85;;;;;;;25.03;59.14;100299.25;5025440;28;20061;-69
2022/08/09 10:09:03;;;;;;;26.77;12.93;;;;;;;24.61;59.06;100260.22;5017070;28;20501;-69
2022/08/09 10:11:58;;;;;;;32.97;12.18;;;;;;;24.68;58.87;100273.78;5025222;28;20148;-69
2022/08/09 10:14:45;;;;;;;19.98;10.80;;;;;;;25.48;58.22;100309.72;5023434;28;20135;-69
2022/08/09 10:17:16;;;;;;;;;;;;;;;25.95;58.65;100313.19;5020632;28;20232;-69
2022/08/09 10:20:25;;;;;;;23.75;10.65;;;;;;;26.50;57.11;100318.28;5023428;28;20309;-68
2022/08/09 10:23:12;;;;;;;25.45;11.57;;;;;;;26.42;56.28;100317.34;5025600;28;20613;-69
2022/08/09 10:25:46;;;;;;;15.05;9.10;;;;;;;25.85;56.06;100248.09;5021195;28;20095;-68
2022/08/09 10:28:34;;;;;;;15.52;8.55;;;;;;;25.74;55.60;100231.59;5024163;28;20499;-69
2022/08/09 10:31:01;;;;;;;17.40;8.95;;;;;;;26.16;55.88;100307.69;5026978;28;20045;-70
2022/08/09 10:33:50;;;;;;;15.23;8.63;;;;;;;26.02;56.07;100290.38;5029216;28;20049;-68
2022/08/09 10:36:37;;;;;;;14.45;8.07;;;;;;;26.00;55.86;100301.38;5030286;28;20508;-69
2022/08/09 10:39:09;;;;;;;18.27;8.82;;;;;;;26.40;55.33;100314.06;5030760;28;20128;-68
2022/08/09 10:41:44;;;;;;;18.60;9.75;;;;;;;26.33;54.95;100314.00;5024912;28;20049;-68
2022/08/09 10:44:15;;;;;;;;;;;;;;;25.85;56.22;100311.84;5020462;28;20056;-69
2022/08/09 10:47:16;;;;;;;15.25;8.45;;;;;;;25.89;56.78;100304.13;5022753;28;20015;-69
2022/08/09 10:50:12;;;;;;;19.67;10.02;;;;;;;25.69;56.00;100262.59;5023217;28;20045;-68
2022/08/09 10:52:51;;;;;;;18.75;11.02;;;;;;;25.84;55.47;100273.00;5022215;28;20050;-68
2022/08/09 10:55:29;;;;;;;15.63;8.43;;;;;;;26.18;55.39;100305.25;5025944;28;20460;-68
2022/08/09 10:58:32;;;;;;;14.07;7.90;;;;;;;25.95;55.11;100247.38;5024560;28;20524;-68
2022/08/09 11:01:01;;;;;;;19.05;9.88;;;;;;;25.87;54.99;100259.94;5023868;28;20054;-68
2022/08/09 11:04:13;;;;;;;19.25;9.32;;;;;;;25.85;55.59;100300.41;5022790;28;20065;-68
2022/08/09 11:06:58;;;;;;;16.42;9.18;;;;;;;25.65;56.00;100296.84;5024665;28;20088;-68
2022/08/09 11:09:48;;;;;;;23.85;10.80;;;;;;;25.74;56.07;100300.25;5024019;28;20065;-68
2022/08/09 11:12:17;;;;;;;16.35;9.27;;;;;;;25.88;55.52;100307.34;5026633;28;20468;-68
2022/08/09 11:14:53;;;;;;;15.88;9.18;;;;;;;25.97;55.13;100291.53;5024972;28;20056;-68
2022/08/09 11:17:23;;;;;;;17.25;9.25;;;;;;;25.85;55.34;100299.59;5027692;28;20045;-69
2022/08/09 11:19:59;;;;;;;19.25;9.52;;;;;;;25.73;55.86;100275.69;5027539;28;20421;-67
2022/08/09 11:22:46;;;;;;;14.30;8.40;;;;;;;26.14;55.65;100300.72;5022693;28;20049;-67
2022/08/09 11:25:30;;;;;;;14.60;9.15;;;;;;;26.68;54.77;100296.34;5028426;28;20140;-67
2022/08/09 11:28:32;;;;;;;19.13;9.32;;;;;;;27.14;54.17;100296.69;5022616;28;20057;-67
2022/08/09 11:31:44;;;;;;;20.08;8.88;;;;;;;27.34;53.94;100294.34;5022631;28;20057;-67
2022/08/09 11:34:21;;;;;;;17.77;9.65;;;;;;;27.15;53.54;100246.75;5031283;28;20077;-68
2022/08/09 11:36:48;;;;;;;15.25;8.25;;;;;;;27.29;53.20;100271.00;5028544;28;20065;-68
2022/08/09 11:39:15;;;;;;;15.63;8.55;;;;;;;27.33;53.54;100304.19;5023613;28;20080;-68
2022/08/09 11:41:43;;;;;;;19.90;9.45;;;;;;;27.54;53.24;100294.06;5021398;28;20084;-68
2022/08/09 11:44:11;;;;;;;18.92;9.05;;;;;;;27.76;52.51;100286.38;5020510;28;20567;-68
2022/08/09 11:46:59;;;;;;;16.23;9.45;;;;;;;27.94;51.79;100274.97;5019066;28;20077;-68
2022/08/09 11:50:03;;;;;;;18.00;9.10;;;;;;;28.04;51.75;100289.34;5023599;28;20472;-68
2022/08/09 11:52:59;;;;;;;20.35;9.57;;;;;;;27.81;52.04;100292.56;4955509;28;20539;-69
2022/08/09 11:55:46;;;;;;;19.10;8.57;;;;;;;27.48;52.22;100282.13;5025856;28;20052;-69